sensor_id;sensor_type;location;lat;lon;timestamp;P1;durP1;ratioP1;P2;durP2;ratioP2
50066;SDS011;35952;52.524;13.340;2023-09-08T00:02:04;11.20;;;10.10;;
50066;SDS011;35952;52.524;13.340;2023-09-08T00:04:30;11.93;;;10.50;;
50066;SDS011;35952;52.524;13.340;2023-09-08T00:06:55;11.87;;;10.80;;
50066;SDS011;35952;52.524;13.340;2023-09-08T00:09:24;11.60;;;10.50;;
50066;SDS011;35952;52.524;13.340;2023-09-08T00:11:50;13.17;;;11.97;;
50066;SDS011;35952;52.524;13.340;2023-09-08T00:14:15;12.43;;;10.93;;
50066;SDS011;35952;52.524;13.340;2023-09-08T00:16:41;11.37;;;10.27;;
50066;SDS011;35952;52.524;13.340;2023-09-08T00:19:08;11.20;;;10.17;;
50066;SDS011;35952;52.524;13.340;2023-09-08T00:21:34;12.30;;;11.20;;
50066;SDS011;35952;52.524;13.340;2023-09-08T00:24:01;10.90;;;9.87;;
50066;SDS011;35952;52.524;13.340;2023-09-08T00:26:26;13.83;;;10.33;;
50066;SDS011;35952;52.524;13.340;2023-09-08T00:28:52;14.13;;;10.13;;
50066;SDS011;35952;52.524;13.340;2023-09-08T00:31:17;12.53;;;11.33;;
50066;SDS011;35952;52.524;13.340;2023-09-08T00:33:43;12.27;;;10.97;;
50066;SDS011;35952;52.524;13.340;2023-09-08T00:36:09;12.93;;;11.77;;
50066;SDS011;35952;52.524;13.340;2023-09-08T00:38:34;12.53;;;11.43;;
50066;SDS011;35952;52.524;13.340;2023-09-08T00:41:00;16.20;;;11.73;;
50066;SDS011;35952;52.524;13.340;2023-09-08T00:43:26;12.27;;;11.27;;
50066;SDS011;35952;52.524;13.340;2023-09-08T00:45:51;13.80;;;11.93;;
50066;SDS011;35952;52.524;13.340;2023-09-08T00:48:19;12.00;;;10.73;;
50066;SDS011;35952;52.524;13.340;2023-09-08T00:50:44;13.60;;;12.20;;
50066;SDS011;35952;52.524;13.340;2023-09-08T00:53:10;15.63;;;11.57;;
50066;SDS011;35952;52.524;13.340;2023-09-08T00:55:36;12.03;;;11.03;;
50066;SDS011;35952;52.524;13.340;2023-09-08T00:58:04;14.90;;;12.80;;
50066;SDS011;35952;52.524;13.340;2023-09-08T01:00:29;13.43;;;12.23;;
50066;SDS011;35952;52.524;13.340;2023-09-08T01:02:56;13.47;;;12.07;;
50066;SDS011;35952;52.524;13.340;2023-09-08T01:05:22;11.80;;;10.70;;
50066;SDS011;35952;52.524;13.340;2023-09-08T01:07:48;11.73;;;10.67;;
50066;SDS011;35952;52.524;13.340;2023-09-08T01:10:14;12.30;;;11.10;;
50066;SDS011;35952;52.524;13.340;2023-09-08T01:12:40;12.90;;;11.70;;
50066;SDS011;35952;52.524;13.340;2023-09-08T01:15:06;12.20;;;11.10;;
50066;SDS011;35952;52.524;13.340;2023-09-08T01:17:32;13.67;;;12.37;;
50066;SDS011;35952;52.524;13.340;2023-09-08T01:20:00;13.63;;;12.40;;
50066;SDS011;35952;52.524;13.340;2023-09-08T01:27:47;12.13;;;11.03;;
50066;SDS011;35952;52.524;13.340;2023-09-08T01:30:16;13.40;;;12.10;;
50066;SDS011;35952;52.524;13.340;2023-09-08T01:32:42;13.30;;;11.97;;
50066;SDS011;35952;52.524;13.340;2023-09-08T01:35:09;12.43;;;11.30;;
50066;SDS011;35952;52.524;13.340;2023-09-08T01:37:35;13.17;;;11.97;;
50066;SDS011;35952;52.524;13.340;2023-09-08T01:40:01;11.97;;;10.83;;
50066;SDS011;35952;52.524;13.340;2023-09-08T01:42:26;12.20;;;11.10;;
50066;SDS011;35952;52.524;13.340;2023-09-08T01:44:52;13.43;;;12.00;;
50066;SDS011;35952;52.524;13.340;2023-09-08T01:47:17;13.20;;;12.00;;
50066;SDS011;35952;52.524;13.340;2023-09-08T01:49:43;11.70;;;10.60;;
50066;SDS011;35952;52.524;13.340;2023-09-08T01:52:09;12.47;;;11.27;;
50066;SDS011;35952;52.524;13.340;2023-09-08T01:54:34;12.07;;;11.07;;
50066;SDS011;35952;52.524;13.340;2023-09-08T01:57:00;12.63;;;11.33;;
50066;SDS011;35952;52.524;13.340;2023-09-08T01:59:25;12.70;;;11.33;;
50066;SDS011;35952;52.524;13.340;2023-09-08T02:01:50;12.90;;;11.87;;
50066;SDS011;35952;52.524;13.340;2023-09-08T02:04:16;14.03;;;12.03;;
50066;SDS011;35952;52.524;13.340;2023-09-08T02:06:41;12.63;;;11.47;;
50066;SDS011;35952;52.524;13.340;2023-09-08T02:09:07;13.50;;;12.17;;
50066;SDS011;35952;52.524;13.340;2023-09-08T02:11:36;13.50;;;12.10;;
50066;SDS011;35952;52.524;13.340;2023-09-08T02:14:02;14.20;;;12.90;;
50066;SDS011;35952;52.524;13.340;2023-09-08T02:16:28;13.13;;;11.83;;
50066;SDS011;35952;52.524;13.340;2023-09-08T02:18:53;14.23;;;11.90;;
50066;SDS011;35952;52.524;13.340;2023-09-08T02:21:19;14.60;;;12.03;;
50066;SDS011;35952;52.524;13.340;2023-09-08T02:23:44;13.40;;;11.90;;
50066;SDS011;35952;52.524;13.340;2023-09-08T02:26:10;13.93;;;12.53;;
50066;SDS011;35952;52.524;13.340;2023-09-08T02:28:35;12.50;;;11.40;;
50066;SDS011;35952;52.524;13.340;2023-09-08T02:31:01;13.97;;;12.77;;
50066;SDS011;35952;52.524;13.340;2023-09-08T02:33:26;12.97;;;11.97;;
50066;SDS011;35952;52.524;13.340;2023-09-08T02:35:53;13.60;;;12.30;;
50066;SDS011;35952;52.524;13.340;2023-09-08T02:38:19;13.30;;;12.07;;
50066;SDS011;35952;52.524;13.340;2023-09-08T02:40:44;12.83;;;11.73;;
50066;SDS011;35952;52.524;13.340;2023-09-08T02:43:10;14.03;;;12.67;;
50066;SDS011;35952;52.524;13.340;2023-09-08T02:45:35;13.67;;;12.37;;
50066;SDS011;35952;52.524;13.340;2023-09-08T02:48:01;13.30;;;11.77;;
50066;SDS011;35952;52.524;13.340;2023-09-08T02:50:27;13.20;;;11.93;;
50066;SDS011;35952;52.524;13.340;2023-09-08T02:52:52;13.83;;;12.53;;
50066;SDS011;35952;52.524;13.340;2023-09-08T02:55:18;13.33;;;11.90;;
50066;SDS011;35952;52.524;13.340;2023-09-08T02:57:43;12.63;;;11.63;;
50066;SDS011;35952;52.524;13.340;2023-09-08T03:00:09;14.33;;;12.97;;
50066;SDS011;35952;52.524;13.340;2023-09-08T03:02:35;14.33;;;12.83;;
50066;SDS011;35952;52.524;13.340;2023-09-08T03:05:01;14.27;;;12.97;;
50066;SDS011;35952;52.524;13.340;2023-09-08T03:07:27;14.87;;;13.37;;
50066;SDS011;35952;52.524;13.340;2023-09-08T03:09:52;15.10;;;13.70;;
50066;SDS011;35952;52.524;13.340;2023-09-08T03:12:18;14.37;;;12.83;;
50066;SDS011;35952;52.524;13.340;2023-09-08T03:14:43;14.73;;;13.13;;
50066;SDS011;35952;52.524;13.340;2023-09-08T03:17:09;14.40;;;12.87;;
50066;SDS011;35952;52.524;13.340;2023-09-08T03:19:35;14.60;;;13.20;;
50066;SDS011;35952;52.524;13.340;2023-09-08T03:22:01;14.63;;;13.37;;
50066;SDS011;35952;52.524;13.340;2023-09-08T03:24:27;14.40;;;13.13;;
50066;SDS011;35952;52.524;13.340;2023-09-08T03:26:52;15.77;;;13.57;;
50066;SDS011;35952;52.524;13.340;2023-09-08T03:29:18;16.20;;;14.03;;
50066;SDS011;35952;52.524;13.340;2023-09-08T03:31:43;13.80;;;12.57;;
50066;SDS011;35952;52.524;13.340;2023-09-08T03:34:09;14.53;;;13.07;;
50066;SDS011;35952;52.524;13.340;2023-09-08T03:36:34;17.40;;;15.90;;
50066;SDS011;35952;52.524;13.340;2023-09-08T03:39:03;15.60;;;14.13;;
50066;SDS011;35952;52.524;13.340;2023-09-08T03:41:28;16.13;;;13.13;;
50066;SDS011;35952;52.524;13.340;2023-09-08T03:43:54;14.63;;;13.33;;
50066;SDS011;35952;52.524;13.340;2023-09-08T03:46:20;14.03;;;12.83;;
50066;SDS011;35952;52.524;13.340;2023-09-08T03:48:45;14.90;;;13.37;;
50066;SDS011;35952;52.524;13.340;2023-09-08T03:51:11;15.13;;;13.57;;
50066;SDS011;35952;52.524;13.340;2023-09-08T03:53:36;15.93;;;14.50;;
50066;SDS011;35952;52.524;13.340;2023-09-08T03:56:02;16.10;;;14.53;;
50066;SDS011;35952;52.524;13.340;2023-09-08T03:58:28;15.13;;;13.73;;
50066;SDS011;35952;52.524;13.340;2023-09-08T04:00:54;14.90;;;13.60;;
50066;SDS011;35952;52.524;13.340;2023-09-08T04:03:19;15.57;;;14.17;;
50066;SDS011;35952;52.524;13.340;2023-09-08T04:05:45;17.03;;;13.73;;
50066;SDS011;35952;52.524;13.340;2023-09-08T04:08:10;15.47;;;13.83;;
50066;SDS011;35952;52.524;13.340;2023-09-08T04:10:36;18.57;;;14.57;;
50066;SDS011;35952;52.524;13.340;2023-09-08T04:13:02;15.40;;;14.10;;
50066;SDS011;35952;52.524;13.340;2023-09-08T04:15:28;15.80;;;14.27;;
50066;SDS011;35952;52.524;13.340;2023-09-08T04:17:53;15.67;;;14.30;;
50066;SDS011;35952;52.524;13.340;2023-09-08T04:20:19;15.73;;;14.23;;
50066;SDS011;35952;52.524;13.340;2023-09-08T04:22:44;15.70;;;14.00;;
50066;SDS011;35952;52.524;13.340;2023-09-08T04:25:10;13.97;;;12.77;;
50066;SDS011;35952;52.524;13.340;2023-09-08T04:27:36;14.73;;;13.33;;
50066;SDS011;35952;52.524;13.340;2023-09-08T04:30:02;14.50;;;13.20;;
50066;SDS011;35952;52.524;13.340;2023-09-08T04:32:31;14.93;;;13.40;;
50066;SDS011;35952;52.524;13.340;2023-09-08T04:34:57;15.33;;;13.83;;
50066;SDS011;35952;52.524;13.340;2023-09-08T04:37:22;15.17;;;13.30;;
50066;SDS011;35952;52.524;13.340;2023-09-08T04:39:48;15.47;;;13.87;;
50066;SDS011;35952;52.524;13.340;2023-09-08T04:42:13;15.13;;;13.80;;
50066;SDS011;35952;52.524;13.340;2023-09-08T04:44:39;16.40;;;14.77;;
50066;SDS011;35952;52.524;13.340;2023-09-08T04:47:04;15.97;;;14.10;;
50066;SDS011;35952;52.524;13.340;2023-09-08T04:49:30;15.90;;;14.40;;
50066;SDS011;35952;52.524;13.340;2023-09-08T04:51:56;16.07;;;14.57;;
50066;SDS011;35952;52.524;13.340;2023-09-08T04:54:21;15.67;;;14.37;;
50066;SDS011;35952;52.524;13.340;2023-09-08T04:56:49;16.90;;;14.50;;
50066;SDS011;35952;52.524;13.340;2023-09-08T04:59:15;15.70;;;14.20;;
50066;SDS011;35952;52.524;13.340;2023-09-08T05:01:41;16.00;;;14.43;;
50066;SDS011;35952;52.524;13.340;2023-09-08T05:04:09;15.13;;;13.70;;
50066;SDS011;35952;52.524;13.340;2023-09-08T05:06:35;15.93;;;13.90;;
50066;SDS011;35952;52.524;13.340;2023-09-08T05:09:01;17.40;;;15.60;;
50066;SDS011;35952;52.524;13.340;2023-09-08T05:11:26;17.20;;;14.33;;
50066;SDS011;35952;52.524;13.340;2023-09-08T05:13:52;15.00;;;13.47;;
50066;SDS011;35952;52.524;13.340;2023-09-08T05:16:18;17.20;;;15.60;;
50066;SDS011;35952;52.524;13.340;2023-09-08T05:18:50;16.67;;;14.90;;
50066;SDS011;35952;52.524;13.340;2023-09-08T05:21:16;17.27;;;14.57;;
50066;SDS011;35952;52.524;13.340;2023-09-08T05:23:42;16.57;;;15.00;;
50066;SDS011;35952;52.524;13.340;2023-09-08T05:26:08;16.03;;;14.57;;
50066;SDS011;35952;52.524;13.340;2023-09-08T05:28:33;18.10;;;15.20;;
50066;SDS011;35952;52.524;13.340;2023-09-08T05:30:59;17.63;;;14.50;;
50066;SDS011;35952;52.524;13.340;2023-09-08T05:33:24;17.33;;;15.00;;
50066;SDS011;35952;52.524;13.340;2023-09-08T05:35:50;17.37;;;14.10;;
50066;SDS011;35952;52.524;13.340;2023-09-08T05:38:15;17.23;;;14.47;;
50066;SDS011;35952;52.524;13.340;2023-09-08T05:40:41;18.77;;;14.30;;
50066;SDS011;35952;52.524;13.340;2023-09-08T05:43:06;22.80;;;15.07;;
50066;SDS011;35952;52.524;13.340;2023-09-08T05:45:32;15.07;;;13.57;;
50066;SDS011;35952;52.524;13.340;2023-09-08T05:47:57;15.93;;;14.23;;
50066;SDS011;35952;52.524;13.340;2023-09-08T05:50:23;16.03;;;14.63;;
50066;SDS011;35952;52.524;13.340;2023-09-08T05:52:48;13.97;;;12.73;;
50066;SDS011;35952;52.524;13.340;2023-09-08T05:55:16;15.97;;;14.33;;
50066;SDS011;35952;52.524;13.340;2023-09-08T05:57:41;16.07;;;14.07;;
50066;SDS011;35952;52.524;13.340;2023-09-08T06:00:07;16.60;;;15.10;;
50066;SDS011;35952;52.524;13.340;2023-09-08T06:02:33;15.30;;;13.80;;
50066;SDS011;35952;52.524;13.340;2023-09-08T06:04:59;15.83;;;14.37;;
50066;SDS011;35952;52.524;13.340;2023-09-08T06:07:24;17.87;;;13.90;;
50066;SDS011;35952;52.524;13.340;2023-09-08T06:09:50;18.30;;;15.60;;
50066;SDS011;35952;52.524;13.340;2023-09-08T06:12:15;17.07;;;15.57;;
50066;SDS011;35952;52.524;13.340;2023-09-08T06:14:41;15.33;;;13.93;;
50066;SDS011;35952;52.524;13.340;2023-09-08T06:17:06;16.60;;;14.53;;
50066;SDS011;35952;52.524;13.340;2023-09-08T06:19:32;15.93;;;13.87;;
50066;SDS011;35952;52.524;13.340;2023-09-08T06:21:58;15.87;;;14.33;;
50066;SDS011;35952;52.524;13.340;2023-09-08T06:24:23;15.67;;;13.97;;
50066;SDS011;35952;52.524;13.340;2023-09-08T06:26:49;22.70;;;17.67;;
50066;SDS011;35952;52.524;13.340;2023-09-08T06:29:15;22.93;;;20.77;;
50066;SDS011;35952;52.524;13.340;2023-09-08T06:31:40;16.97;;;15.17;;
50066;SDS011;35952;52.524;13.340;2023-09-08T06:34:06;15.83;;;14.53;;
50066;SDS011;35952;52.524;13.340;2023-09-08T06:36:31;16.27;;;14.67;;
50066;SDS011;35952;52.524;13.340;2023-09-08T06:38:57;15.77;;;14.10;;
50066;SDS011;35952;52.524;13.340;2023-09-08T06:41:22;15.70;;;14.07;;
50066;SDS011;35952;52.524;13.340;2023-09-08T06:43:48;15.10;;;13.47;;
50066;SDS011;35952;52.524;13.340;2023-09-08T06:46:14;15.47;;;13.83;;
50066;SDS011;35952;52.524;13.340;2023-09-08T06:48:40;14.53;;;13.10;;
50066;SDS011;35952;52.524;13.340;2023-09-08T06:51:05;16.13;;;14.40;;
50066;SDS011;35952;52.524;13.340;2023-09-08T06:53:31;17.50;;;13.53;;
50066;SDS011;35952;52.524;13.340;2023-09-08T06:55:57;14.37;;;12.93;;
50066;SDS011;35952;52.524;13.340;2023-09-08T06:58:22;16.13;;;14.53;;
50066;SDS011;35952;52.524;13.340;2023-09-08T07:00:49;15.73;;;13.73;;
50066;SDS011;35952;52.524;13.340;2023-09-08T07:03:15;17.17;;;13.43;;
50066;SDS011;35952;52.524;13.340;2023-09-08T07:05:41;15.87;;;13.90;;
50066;SDS011;35952;52.524;13.340;2023-09-08T07:08:06;19.63;;;15.13;;
50066;SDS011;35952;52.524;13.340;2023-09-08T07:10:32;15.00;;;13.40;;
50066;SDS011;35952;52.524;13.340;2023-09-08T07:12:57;16.50;;;14.07;;
50066;SDS011;35952;52.524;13.340;2023-09-08T07:15:23;15.97;;;14.40;;
50066;SDS011;35952;52.524;13.340;2023-09-08T07:17:49;15.97;;;14.20;;
50066;SDS011;35952;52.524;13.340;2023-09-08T07:20:14;16.03;;;14.33;;
50066;SDS011;35952;52.524;13.340;2023-09-08T07:22:40;17.33;;;14.00;;
50066;SDS011;35952;52.524;13.340;2023-09-08T07:25:05;14.47;;;12.97;;
50066;SDS011;35952;52.524;13.340;2023-09-08T07:27:31;14.00;;;12.70;;
50066;SDS011;35952;52.524;13.340;2023-09-08T07:29:57;14.20;;;11.83;;
50066;SDS011;35952;52.524;13.340;2023-09-08T07:32:22;13.97;;;12.40;;
50066;SDS011;35952;52.524;13.340;2023-09-08T07:34:49;14.00;;;12.70;;
50066;SDS011;35952;52.524;13.340;2023-09-08T07:37:19;13.93;;;11.20;;
50066;SDS011;35952;52.524;13.340;2023-09-08T07:39:49;13.70;;;12.40;;
50066;SDS011;35952;52.524;13.340;2023-09-08T07:42:15;12.60;;;11.40;;
50066;SDS011;35952;52.524;13.340;2023-09-08T07:44:40;16.00;;;12.40;;
50066;SDS011;35952;52.524;13.340;2023-09-08T07:47:06;13.80;;;12.43;;
50066;SDS011;35952;52.524;13.340;2023-09-08T07:49:35;15.97;;;11.97;;
50066;SDS011;35952;52.524;13.340;2023-09-08T07:52:01;14.00;;;12.60;;
50066;SDS011;35952;52.524;13.340;2023-09-08T07:54:26;11.87;;;10.77;;
50066;SDS011;35952;52.524;13.340;2023-09-08T07:56:52;12.00;;;10.67;;
50066;SDS011;35952;52.524;13.340;2023-09-08T07:59:17;12.83;;;11.63;;
50066;SDS011;35952;52.524;13.340;2023-09-08T08:01:43;12.57;;;11.37;;
50066;SDS011;35952;52.524;13.340;2023-09-08T08:04:09;13.33;;;12.13;;
50066;SDS011;35952;52.524;13.340;2023-09-08T08:06:37;11.53;;;10.33;;
50066;SDS011;35952;52.524;13.340;2023-09-08T08:09:03;12.37;;;11.23;;
50066;SDS011;35952;52.524;13.340;2023-09-08T08:11:29;11.77;;;10.57;;
50066;SDS011;35952;52.524;13.340;2023-09-08T08:13:54;12.23;;;11.13;;
50066;SDS011;35952;52.524;13.340;2023-09-08T08:16:21;11.93;;;10.93;;
50066;SDS011;35952;52.524;13.340;2023-09-08T08:18:48;11.20;;;10.20;;
50066;SDS011;35952;52.524;13.340;2023-09-08T08:21:14;15.23;;;10.00;;
50066;SDS011;35952;52.524;13.340;2023-09-08T08:23:39;11.87;;;9.90;;
50066;SDS011;35952;52.524;13.340;2023-09-08T08:26:05;10.60;;;9.60;;
50066;SDS011;35952;52.524;13.340;2023-09-08T08:28:31;10.83;;;9.83;;
50066;SDS011;35952;52.524;13.340;2023-09-08T08:30:57;11.63;;;10.47;;
50066;SDS011;35952;52.524;13.340;2023-09-08T08:33:22;12.17;;;10.80;;
50066;SDS011;35952;52.524;13.340;2023-09-08T08:35:51;10.83;;;9.73;;
50066;SDS011;35952;52.524;13.340;2023-09-08T08:38:17;10.97;;;9.90;;
50066;SDS011;35952;52.524;13.340;2023-09-08T08:40:43;11.03;;;9.97;;
50066;SDS011;35952;52.524;13.340;2023-09-08T08:43:08;11.00;;;10.00;;
50066;SDS011;35952;52.524;13.340;2023-09-08T08:45:34;10.97;;;9.77;;
50066;SDS011;35952;52.524;13.340;2023-09-08T08:48:02;13.77;;;12.17;;
50066;SDS011;35952;52.524;13.340;2023-09-08T08:50:29;11.77;;;10.60;;
50066;SDS011;35952;52.524;13.340;2023-09-08T08:52:56;12.63;;;11.17;;
50066;SDS011;35952;52.524;13.340;2023-09-08T08:55:23;17.30;;;14.20;;
50066;SDS011;35952;52.524;13.340;2023-09-08T08:57:50;11.20;;;10.03;;
50066;SDS011;35952;52.524;13.340;2023-09-08T09:00:16;11.87;;;10.67;;
50066;SDS011;35952;52.524;13.340;2023-09-08T09:02:43;10.17;;;9.27;;
50066;SDS011;35952;52.524;13.340;2023-09-08T09:05:14;10.37;;;9.47;;
50066;SDS011;35952;52.524;13.340;2023-09-08T09:07:40;11.10;;;8.87;;
50066;SDS011;35952;52.524;13.340;2023-09-08T09:10:07;10.70;;;9.60;;
50066;SDS011;35952;52.524;13.340;2023-09-08T09:12:33;10.67;;;9.67;;
50066;SDS011;35952;52.524;13.340;2023-09-08T09:15:00;10.47;;;9.47;;
50066;SDS011;35952;52.524;13.340;2023-09-08T09:17:29;14.03;;;10.83;;
50066;SDS011;35952;52.524;13.340;2023-09-08T09:22:40;10.17;;;9.27;;
50066;SDS011;35952;52.524;13.340;2023-09-08T09:25:06;9.80;;;8.60;;
50066;SDS011;35952;52.524;13.340;2023-09-08T09:27:32;8.80;;;8.10;;
50066;SDS011;35952;52.524;13.340;2023-09-08T09:30:06;10.97;;;9.97;;
50066;SDS011;35952;52.524;13.340;2023-09-08T09:32:33;9.27;;;8.47;;
50066;SDS011;35952;52.524;13.340;2023-09-08T09:35:00;11.33;;;9.43;;
50066;SDS011;35952;52.524;13.340;2023-09-08T09:37:26;10.40;;;9.50;;
50066;SDS011;35952;52.524;13.340;2023-09-08T09:39:52;9.77;;;8.87;;
50066;SDS011;35952;52.524;13.340;2023-09-08T09:42:19;8.47;;;7.83;;
50066;SDS011;35952;52.524;13.340;2023-09-08T09:44:49;10.57;;;9.57;;
50066;SDS011;35952;52.524;13.340;2023-09-08T09:47:16;10.03;;;9.03;;
50066;SDS011;35952;52.524;13.340;2023-09-08T09:49:46;10.23;;;9.27;;
50066;SDS011;35952;52.524;13.340;2023-09-08T09:52:13;10.90;;;9.90;;
50066;SDS011;35952;52.524;13.340;2023-09-08T09:54:42;10.40;;;9.50;;
50066;SDS011;35952;52.524;13.340;2023-09-08T09:57:14;10.50;;;9.53;;
50066;SDS011;35952;52.524;13.340;2023-09-08T09:59:40;10.57;;;9.50;;
50066;SDS011;35952;52.524;13.340;2023-09-08T10:02:08;10.67;;;8.93;;
50066;SDS011;35952;52.524;13.340;2023-09-08T10:04:39;11.93;;;10.10;;
50066;SDS011;35952;52.524;13.340;2023-09-08T10:07:12;10.87;;;9.70;;
50066;SDS011;35952;52.524;13.340;2023-09-08T10:09:40;10.43;;;9.43;;
50066;SDS011;35952;52.524;13.340;2023-09-08T10:12:05;9.97;;;9.03;;
50066;SDS011;35952;52.524;13.340;2023-09-08T10:14:35;10.90;;;8.47;;
50066;SDS011;35952;52.524;13.340;2023-09-08T10:17:01;9.27;;;8.20;;
50066;SDS011;35952;52.524;13.340;2023-09-08T10:19:30;10.57;;;9.27;;
50066;SDS011;35952;52.524;13.340;2023-09-08T10:21:59;9.17;;;8.37;;
50066;SDS011;35952;52.524;13.340;2023-09-08T10:24:29;10.40;;;8.83;;
50066;SDS011;35952;52.524;13.340;2023-09-08T10:27:04;9.67;;;8.60;;
50066;SDS011;35952;52.524;13.340;2023-09-08T10:29:33;12.33;;;9.07;;
50066;SDS011;35952;52.524;13.340;2023-09-08T10:32:00;9.87;;;8.50;;
50066;SDS011;35952;52.524;13.340;2023-09-08T10:34:27;9.90;;;8.10;;
50066;SDS011;35952;52.524;13.340;2023-09-08T10:36:53;10.60;;;8.33;;
50066;SDS011;35952;52.524;13.340;2023-09-08T10:39:28;7.80;;;7.20;;
50066;SDS011;35952;52.524;13.340;2023-09-08T10:47:09;10.17;;;7.90;;
50066;SDS011;35952;52.524;13.340;2023-09-08T10:49:35;8.37;;;7.67;;
50066;SDS011;35952;52.524;13.340;2023-09-08T10:52:12;12.30;;;8.50;;
50066;SDS011;35952;52.524;13.340;2023-09-08T10:54:41;10.30;;;9.30;;
50066;SDS011;35952;52.524;13.340;2023-09-08T10:57:14;15.20;;;12.13;;
50066;SDS011;35952;52.524;13.340;2023-09-08T10:59:53;11.20;;;8.43;;
50066;SDS011;35952;52.524;13.340;2023-09-08T11:05:01;12.03;;;8.80;;
50066;SDS011;35952;52.524;13.340;2023-09-08T11:07:29;8.93;;;8.03;;
50066;SDS011;35952;52.524;13.340;2023-09-08T11:09:56;10.20;;;8.53;;
50066;SDS011;35952;52.524;13.340;2023-09-08T11:12:22;8.77;;;7.90;;
50066;SDS011;35952;52.524;13.340;2023-09-08T11:14:49;10.00;;;7.80;;
50066;SDS011;35952;52.524;13.340;2023-09-08T11:17:15;8.77;;;7.83;;
50066;SDS011;35952;52.524;13.340;2023-09-08T11:19:47;10.10;;;9.10;;
50066;SDS011;35952;52.524;13.340;2023-09-08T11:22:17;8.93;;;8.13;;
50066;SDS011;35952;52.524;13.340;2023-09-08T11:24:43;9.30;;;8.30;;
50066;SDS011;35952;52.524;13.340;2023-09-08T11:27:10;15.33;;;7.97;;
50066;SDS011;35952;52.524;13.340;2023-09-08T11:29:36;9.67;;;8.77;;
50066;SDS011;35952;52.524;13.340;2023-09-08T11:32:06;8.90;;;8.00;;
50066;SDS011;35952;52.524;13.340;2023-09-08T11:34:32;8.13;;;7.33;;
50066;SDS011;35952;52.524;13.340;2023-09-08T11:36:59;10.13;;;8.30;;
50066;SDS011;35952;52.524;13.340;2023-09-08T11:39:25;11.30;;;10.20;;
50066;SDS011;35952;52.524;13.340;2023-09-08T11:41:51;9.83;;;8.83;;
50066;SDS011;35952;52.524;13.340;2023-09-08T11:44:17;15.10;;;11.97;;
50066;SDS011;35952;52.524;13.340;2023-09-08T11:46:43;9.33;;;8.37;;
50066;SDS011;35952;52.524;13.340;2023-09-08T11:49:10;8.83;;;7.93;;
50066;SDS011;35952;52.524;13.340;2023-09-08T11:51:36;8.67;;;7.87;;
50066;SDS011;35952;52.524;13.340;2023-09-08T11:54:02;9.33;;;8.50;;
50066;SDS011;35952;52.524;13.340;2023-09-08T11:56:28;8.30;;;7.60;;
50066;SDS011;35952;52.524;13.340;2023-09-08T11:58:54;8.73;;;7.90;;
50066;SDS011;35952;52.524;13.340;2023-09-08T12:01:21;8.50;;;7.73;;
50066;SDS011;35952;52.524;13.340;2023-09-08T12:03:53;8.37;;;7.57;;
50066;SDS011;35952;52.524;13.340;2023-09-08T12:06:19;9.53;;;7.70;;
50066;SDS011;35952;52.524;13.340;2023-09-08T12:08:49;9.13;;;8.33;;
50066;SDS011;35952;52.524;13.340;2023-09-08T12:11:14;14.07;;;12.67;;
50066;SDS011;35952;52.524;13.340;2023-09-08T12:13:40;8.90;;;7.63;;
50066;SDS011;35952;52.524;13.340;2023-09-08T12:16:21;8.47;;;7.77;;
50066;SDS011;35952;52.524;13.340;2023-09-08T12:18:49;7.93;;;7.13;;
50066;SDS011;35952;52.524;13.340;2023-09-08T12:21:15;8.57;;;7.77;;
50066;SDS011;35952;52.524;13.340;2023-09-08T12:23:48;8.60;;;7.50;;
50066;SDS011;35952;52.524;13.340;2023-09-08T12:26:14;9.17;;;8.37;;
50066;SDS011;35952;52.524;13.340;2023-09-08T12:28:41;8.83;;;8.13;;
50066;SDS011;35952;52.524;13.340;2023-09-08T12:31:08;9.20;;;7.77;;
50066;SDS011;35952;52.524;13.340;2023-09-08T12:33:34;8.80;;;7.90;;
50066;SDS011;35952;52.524;13.340;2023-09-08T12:36:03;10.00;;;7.97;;
50066;SDS011;35952;52.524;13.340;2023-09-08T12:38:36;8.20;;;7.40;;
50066;SDS011;35952;52.524;13.340;2023-09-08T12:41:02;11.80;;;6.93;;
50066;SDS011;35952;52.524;13.340;2023-09-08T12:43:27;8.33;;;7.60;;
50066;SDS011;35952;52.524;13.340;2023-09-08T12:45:53;9.43;;;7.87;;
50066;SDS011;35952;52.524;13.340;2023-09-08T12:48:19;8.30;;;7.60;;
50066;SDS011;35952;52.524;13.340;2023-09-08T12:50:44;8.17;;;7.23;;
50066;SDS011;35952;52.524;13.340;2023-09-08T12:53:11;8.20;;;7.40;;
50066;SDS011;35952;52.524;13.340;2023-09-08T12:55:36;9.57;;;7.10;;
50066;SDS011;35952;52.524;13.340;2023-09-08T12:58:02;7.97;;;7.00;;
50066;SDS011;35952;52.524;13.340;2023-09-08T13:00:27;12.63;;;8.20;;
50066;SDS011;35952;52.524;13.340;2023-09-08T13:02:53;9.23;;;8.43;;
50066;SDS011;35952;52.524;13.340;2023-09-08T13:05:19;9.53;;;7.90;;
50066;SDS011;35952;52.524;13.340;2023-09-08T13:07:45;7.87;;;7.10;;
50066;SDS011;35952;52.524;13.340;2023-09-08T13:10:10;8.30;;;7.10;;
50066;SDS011;35952;52.524;13.340;2023-09-08T13:12:36;7.83;;;7.17;;
50066;SDS011;35952;52.524;13.340;2023-09-08T13:15:01;7.27;;;6.67;;
50066;SDS011;35952;52.524;13.340;2023-09-08T13:17:27;10.00;;;7.60;;
50066;SDS011;35952;52.524;13.340;2023-09-08T13:19:52;8.67;;;7.87;;
50066;SDS011;35952;52.524;13.340;2023-09-08T13:22:19;7.70;;;7.00;;
50066;SDS011;35952;52.524;13.340;2023-09-08T13:24:45;7.97;;;7.27;;
50066;SDS011;35952;52.524;13.340;2023-09-08T13:27:10;12.33;;;11.23;;
50066;SDS011;35952;52.524;13.340;2023-09-08T13:29:36;9.53;;;7.67;;
50066;SDS011;35952;52.524;13.340;2023-09-08T13:32:03;8.83;;;7.77;;
50066;SDS011;35952;52.524;13.340;2023-09-08T13:34:29;8.17;;;7.47;;
50066;SDS011;35952;52.524;13.340;2023-09-08T13:36:55;10.70;;;7.50;;
50066;SDS011;35952;52.524;13.340;2023-09-08T13:39:20;7.87;;;7.07;;
50066;SDS011;35952;52.524;13.340;2023-09-08T13:41:46;7.27;;;6.67;;
50066;SDS011;35952;52.524;13.340;2023-09-08T13:44:13;8.20;;;7.40;;
50066;SDS011;35952;52.524;13.340;2023-09-08T13:46:39;8.23;;;7.37;;
50066;SDS011;35952;52.524;13.340;2023-09-08T13:49:05;7.33;;;6.73;;
50066;SDS011;35952;52.524;13.340;2023-09-08T13:51:30;8.27;;;7.57;;
50066;SDS011;35952;52.524;13.340;2023-09-08T13:53:57;8.20;;;7.40;;
50066;SDS011;35952;52.524;13.340;2023-09-08T13:56:22;7.00;;;6.50;;
50066;SDS011;35952;52.524;13.340;2023-09-08T13:58:48;8.10;;;7.40;;
50066;SDS011;35952;52.524;13.340;2023-09-08T14:01:13;7.90;;;7.30;;
50066;SDS011;35952;52.524;13.340;2023-09-08T14:03:39;7.70;;;7.00;;
50066;SDS011;35952;52.524;13.340;2023-09-08T14:06:04;8.23;;;7.53;;
50066;SDS011;35952;52.524;13.340;2023-09-08T14:08:30;7.67;;;6.97;;
50066;SDS011;35952;52.524;13.340;2023-09-08T14:10:55;7.43;;;6.83;;
50066;SDS011;35952;52.524;13.340;2023-09-08T14:13:21;7.13;;;6.53;;
50066;SDS011;35952;52.524;13.340;2023-09-08T14:15:46;10.67;;;7.00;;
50066;SDS011;35952;52.524;13.340;2023-09-08T14:18:12;7.23;;;6.37;;
50066;SDS011;35952;52.524;13.340;2023-09-08T14:20:39;12.10;;;9.20;;
50066;SDS011;35952;52.524;13.340;2023-09-08T14:23:05;12.10;;;9.20;;
50066;SDS011;35952;52.524;13.340;2023-09-08T14:25:32;13.33;;;12.13;;
50066;SDS011;35952;52.524;13.340;2023-09-08T14:27:58;8.30;;;7.60;;